This is the latest recevied weather packets stored in our database for station/object KE5KUL-13. If no packets are shown the sender has not sent any weather packets the latest 10 day(s).
| Time | Temp. | Humidity | Pressure | Rain* | Wind** | Luminosity | Snow |
|---|---|---|---|---|---|---|---|
| 1777230019 | 29.44° C | 25% | 1008.6 hPa | 0 mm | - | - | - |
| 1777228219 | 27.22° C | 33% | 1009.4 hPa | 0 mm | - | - | - |
| 1777227619 | 26.11° C | 34% | 1009.5 hPa | 0 mm | - | - | - |
| 1777222819 | 22.78° C | 49% | 1010.6 hPa | 0 mm | - | - | - |
| 1777220419 | 20.56° C | 56% | 1010.4 hPa | 0 mm | - | - | - |
| 1777216217 | 16.11° C | 68% | 1010.4 hPa | 0 mm | - | - | - |
| 1777213818 | 13.89° C | 73% | 1010 hPa | 0 mm | - | - | - |
| 1777213219 | 13.33° C | 74% | 1010.2 hPa | 0 mm | - | - | - |
| 1777212618 | 12.78° C | 75% | 1010.1 hPa | 0 mm | - | - | - |
| 1777210218 | 11.67° C | 76% | 1010.2 hPa | 0 mm | - | - | - |
| 1777209018 | 11.67° C | 77% | 1010.2 hPa | 0 mm | - | - | - |
| 1777208418 | 11.11° C | 76% | 1010.3 hPa | 0 mm | - | - | - |
| 1777207818 | 11.11° C | 76% | 1010.2 hPa | 0 mm | - | - | - |
| 1777206618 | 11.11° C | 75% | 1010 hPa | 0 mm | - | - | - |
| 1777206018 | 10.56° C | 75% | 1009.9 hPa | 0 mm | - | - | - |
| 1777203018 | 11.67° C | 71% | 1009.7 hPa | 0 mm | - | - | - |
| 1777202418 | 11.67° C | 70% | 1009.9 hPa | 0 mm | - | - | - |
| 1777201818 | 12.22° C | 69% | 1010.1 hPa | 0 mm | - | - | - |
| 1777201218 | 12.22° C | 71% | 1009.9 hPa | 0 mm | - | - | - |
| 1777199417 | 12.78° C | 71% | 1010.3 hPa | 0 mm | - | - | - |
| 1777198818 | 12.78° C | 71% | 1010 hPa | 0 mm | - | - | - |
| 1777196417 | 13.33° C | 67% | 1010.1 hPa | 0 mm | - | - | - |
| 1777195818 | 13.33° C | 66% | 1010.2 hPa | 0 mm | - | - | - |
| 1777195218 | 13.33° C | 65% | 1010.1 hPa | 0 mm | - | - | - |
| 1777194617 | 13.89° C | 63% | 1010.2 hPa | 0 mm | - | - | - |
* Rain latest hour (hover to see other rain measurements)
** Current wind speed in m/s (hover to see current wind gust speed)